Ride Results

Nanango (10-06-2017)
Ride distance: 80.0 km

Outcomes - Nanango (10-06-2017)
Division No. of Entries Retired / DNE Completed Withdrawn Ineligible V/O Percentage Completed
HW 8 - 8 - - - 100.00%
MW 24 - 22 - - 2 91.67%
LW 22 - 18 2 - 2 81.82%
JN 6 - 6 - - - 100.00%
Totals 60 - 54 2 - 4 90.00%
Results - Nanango (10-06-2017)
No. Rider Horse Place Time Leg Speeds Total
Km/Hr
H/R bpm
Heavyweight
32 Shane Butler Burralga Angelikh 1 (BC) 5:18:00 15.9, 14.2 15.09 34, 43, 48 (Avg:45)
56 Mark Nimon Abbeywood Le'Tigre 2 5:28:00 15.2, 14.0 14.63 38, 50, 49 (Avg:49)
62 Stan Zischke Glenewan Whisper 3 6:01:00 13.2, 13.3 13.30 32, 48, 45 (Avg:46)
11 Olaf Lochtenberg Matta Mia Dayimi 4 6:11:00 13.1, 12.6 12.94 39, 49, 50 (Avg:49)
59 Anthony Wolgast Nirou Zoheer 5 6:23:00 13.1, 11.9 12.53 32, 43, 47 (Avg:45)
22 Selwyn Nix Dunbar Mahadik 6 6:57:00 11.9, 11.1 11.51 33, 42, 49 (Avg:45)
19 Gavin Bartlett Gheerulla Ambition 7 7:43:00 10.2, 10.5 10.37 30, 43, 42 (Avg:42)
24 Greg Garred Shannonwood Perseus 8 7:49:00 11.0, 9.5 10.23 38, 49, 59 (Avg:54)
Middleweight
34 Akhmed Pshunov Sangah The Messiah 1 (BC) 4:18:00 17.6, 19.6 18.60 37, 50, 55 (Avg:52)
58 Fiona Fenech Winderella Lodge Sphinx 2 4:19:00 17.9, 19.1 18.53 39, 44, 46 (Avg:45)
12 Linda Lochtenberg Matta Mia Kassanova 3 5:03:00 17.1, 14.7 15.84 41, 49, 60 (Avg:54)
60 Angela Waldock Riverfire 4 5:18:00 15.9, 14.2 15.09 35, 42, 55 (Avg:48)
3 Gayle Holmes Cairo 5 5:21:00 15.1, 14.7 14.95 34, 43, 48 (Avg:45)
48 Jamie Green No Regret Shocking 6 5:23:00 14.9, 14.7 14.86 40, 51, 58 (Avg:54)
36 Brook Sample Brookleigh Quincy 7 6:14:00 13.2, 12.4 12.83 31, 37, 49 (Avg:43)
52 Jessyca Dakin Hirstglen Herbie 8 6:15:00 13.1, 12.4 12.80 31, 50, 44 (Avg:47)
54 Anna de Nys Boonara Tex 8 6:15:00 13.1, 12.4 12.80 38, 49, 51 (Avg:50)
41 Simone Krahnen La Battista Shadow Fax 8 6:15:00 12.1, 13.5 12.80 32, 45, 51 (Avg:48)
43 Elsie Newsome Churinga Simfire 11 6:16:00 13.7, 11.8 12.77 40, 55, 55 (Avg:55)
45 Luke Annetts Crystan 12 6:18:00 13.4, 12.0 12.70 40, 46, 53 (Avg:49)
1 Leah Robertson Diamond T Shakil Silver City 13 6:21:00 13.3, 11.9 12.60 38, 48, 48 (Avg:48)
8 Rachel Garvin Simeon Shovan 14 6:31:00 12.9, 11.6 12.28 39, 51, 53 (Avg:52)
9 Adam Garvin Manet Ibn Rashan 14 6:31:00 13.0, 11.5 12.28 36, 44, 48 (Avg:46)
6 David Urquhart Bremervale Jon Snow 16 6:56:00 12.1, 11.0 11.54 35, 43, 52 (Avg:47)
23 Corey Nix Homeleigh Mountain Kosmo 17 6:57:00 11.9, 11.1 11.51 34, 44, 56 (Avg:50)
20 Virginia Barber Concerto 18 7:05:00 13.1, 9.9 11.29 37, 50, 52 (Avg:51)
17 Rebecca Andrews Maloo Vale Amir Halo 19 7:14:00 12.1, 10.1 11.06 35, 45, 51 (Avg:48)
7 Sue Gurtner Cedarton Achak Abornazine 20 7:21:00 12.6, 9.5 10.88 31, 49, 49 (Avg:49)
63 Jo Hamilton-Branigan Kholonial Boadecia 21 7:23:00 12.0, 9.8 10.84 33, 47, 46 (Avg:46)
27 Liz Terry Ausden Illusion 22 7:35:00 13.1, 8.7 10.55 32, 48, 48 (Avg:48)
55 Jess Capek Indy Lame L2 0:00:00 12.4, 9.1 - 36, 50, 52 (Avg:51)
49 Jacinta Stubbings Ffire Storm Lame L1 0:00:00 15.4 - 30, 52 (Avg:52)
Lightweight
5 Shelley Chapman Touchwarr Kiara 1 4:23:00 17.9, 18.6 18.25 34, 47, 58 (Avg:52)
46 Kaylea Maher Sample Park Zach 2 (BC) 5:29:00 14.9, 14.2 14.59 40, 52, 52 (Avg:52)
16 Jocelyn Barnes Trinity 3 5:58:00 13.6, 13.1 13.41 34, 44, 45 (Avg:44)
28 Leigh Rich Miva Avanti 3 5:58:00 13.4, 13.3 13.41 46, 44, 54 (Avg:49)
14 Sue Sutcliffe Zanes Shadow 5 5:59:00 14.1, 12.6 13.37 33, 44, 51 (Avg:47)
37 Tayla Crang Namac Crak A Jak 6 6:14:00 13.2, 12.4 12.83 35, 40, 50 (Avg:45)
35 Grace Webb Anglesea Gabriella 6 6:14:00 13.1, 12.4 12.83 42, 52, 53 (Avg:52)
42 Erin Krahnen Glengannon Azazael 8 6:15:00 12.1, 13.5 12.80 35, 46, 53 (Avg:49)
44 Kate Appleby Bashan Bayda 9 6:17:00 13.4, 12.0 12.73 43, 53, 50 (Avg:51)
26 Antonia Jardine Cooper 10 6:31:00 12.9, 11.6 12.28 38, 45, 46 (Avg:45)
40 Ute Jordan Glenewan Blitz 11 6:35:00 11.8, 12.4 12.15 32, 42, 45 (Avg:43)
39 Belinda Redhead Charaway M 'Adore 11 6:35:00 11.8, 12.4 12.15 39, 46, 49 (Avg:47)
4 Pip Ireland Julian te 13 6:54:00 11.5, 11.5 11.59 35, 41, 46 (Avg:43)
18 Victoria Clarke Ardair Skoda 14 7:14:00 12.1, 10.1 11.06 36, 43, 49 (Avg:46)
50 Janelle Roosen Greywood Magenta 15 7:19:00 11.4, 10.4 10.93 31, 42, 49 (Avg:45)
2 Sonya Ryan Kholonial Amigo 16 7:23:00 12.0, 9.8 10.84 35, 47, 48 (Avg:47)
64 Christal Rizk Kynnum Park Jai 17 7:35:00 11.4, 9.7 10.55 43, 54, 52 (Avg:53)
25 Jess Kennedy Rodborough Safra 18 7:49:00 11.0, 9.5 10.23 32, 43, 45 (Avg:44)
30 Cindy Harris Bura Sahib Storm Boy Lame L2 0:00:00 13.0, 12.6 - 32, 44, 49 (Avg:46)
15 Adriana Sardoni Willowvale Sirahh Lame L2 0:00:00 12.1, 10.1 - 40, 46, 50 (Avg:48)
61 Amaya Thomas Indiana Seabreeze Withdrawn L1 0:00:00 - - 31, 42 (Avg:42)
33 Lorraine Ternouth Dunwingeri Zaza Withdrawn P/R 0:00:00 - - 46
Junior
47 Emma Dimech Abbeywood Bella 1 (BC) 4:42:00 17.6, 16.4 17.02 37, 50, 54 (Avg:52)
57 Maeve Paten Abbeywood Cochise 2 5:28:00 15.2, 14.0 14.63 36, 46, 49 (Avg:47)
31 Mel Simpson Bashan Memphis 3 5:46:00 15.4, 12.5 13.87 35, 46, 49 (Avg:47)
13 Tahlea Lochtenberg Henley Farm Bard 4 6:11:00 13.1, 12.6 12.94 34, 50, 46 (Avg:48)
10 Ben Hoey Cameo Periclez 5 6:54:00 11.5, 11.5 11.59 32, 49, 49 (Avg:49)
21 Georgie Barber Shanti 6 7:05:00 13.1, 9.9 11.29 33, 52, 43 (Avg:47)